createdAt,value
2022-08-26T00:02:08.275Z,21.63
2022-08-26T00:04:38.179Z,27.92
2022-08-26T00:07:07.648Z,20.80
2022-08-26T00:09:40.190Z,25.77
2022-08-26T00:12:12.398Z,23.17
2022-08-26T00:14:43.773Z,32.33
2022-08-26T00:17:13.031Z,24.13
2022-08-26T00:19:42.431Z,15.77
2022-08-26T00:22:12.108Z,17.33
2022-08-26T00:24:41.346Z,26.05
2022-08-26T00:27:17.452Z,23.65
2022-08-26T00:29:48.072Z,29.88
2022-08-26T00:32:17.490Z,26.80
2022-08-26T00:34:47.060Z,26.48
2022-08-26T00:37:17.065Z,21.23
2022-08-26T00:39:46.780Z,29.02
2022-08-26T00:42:15.977Z,32.75
2022-08-26T00:44:46.967Z,34.00
2022-08-26T00:47:23.766Z,27.73
2022-08-26T00:49:54.250Z,35.72
2022-08-26T00:52:25.075Z,42.22
2022-08-26T00:55:01.420Z,26.60
2022-08-26T00:57:34.187Z,47.03
2022-08-26T01:00:11.020Z,38.30
2022-08-26T01:02:40.875Z,37.60
2022-08-26T01:05:16.971Z,47.25
2022-08-26T01:07:46.293Z,37.30
2022-08-26T01:10:18.859Z,35.08
2022-08-26T01:12:52.057Z,45.13
2022-08-26T01:15:26.115Z,35.45
2022-08-26T01:17:55.551Z,40.47
2022-08-26T01:20:32.875Z,33.30
2022-08-26T01:23:06.713Z,43.88
2022-08-26T01:25:43.143Z,33.42
2022-08-26T01:28:16.996Z,37.70
2022-08-26T01:30:48.218Z,42.20
2022-08-26T01:33:23.005Z,30.45
2022-08-26T01:35:52.568Z,35.15
2022-08-26T01:38:24.137Z,31.70
2022-08-26T01:40:53.652Z,40.85
2022-08-26T01:43:28.375Z,28.27
2022-08-26T01:45:57.824Z,41.53
2022-08-26T01:48:29.777Z,38.20
2022-08-26T01:51:00.393Z,37.50
2022-08-26T01:53:31.542Z,37.65
2022-08-26T01:56:03.594Z,36.30
2022-08-26T01:58:37.051Z,40.17
2022-08-26T02:01:08.251Z,38.17
2022-08-26T02:03:51.521Z,32.45
2022-08-26T02:06:21.397Z,31.40
2022-08-26T02:08:56.504Z,29.80
2022-08-26T02:11:25.802Z,34.92
2022-08-26T02:14:01.733Z,39.75
2022-08-26T02:16:37.791Z,35.60
2022-08-26T02:19:17.323Z,46.35
2022-08-26T02:21:51.320Z,51.45
2022-08-26T02:24:27.370Z,34.33
2022-08-26T02:26:58.528Z,56.55
2022-08-26T02:29:34.566Z,43.53
2022-08-26T02:32:04.209Z,33.22
2022-08-26T02:34:35.715Z,33.10
2022-08-26T02:37:10.024Z,32.05
2022-08-26T02:39:43.681Z,40.20
2022-08-26T02:42:13.191Z,41.10
2022-08-26T02:44:42.928Z,50.40
2022-08-26T02:47:15.894Z,45.38
2022-08-26T02:49:47.418Z,35.90
2022-08-26T02:52:17.288Z,43.40
2022-08-26T02:54:49.604Z,40.80
2022-08-26T02:57:19.661Z,41.30
2022-08-26T02:59:51.749Z,43.65
2022-08-26T03:02:21.546Z,40.22
2022-08-26T03:04:57.388Z,45.38
2022-08-26T03:07:27.713Z,42.88
2022-08-26T03:09:58.432Z,49.55
2022-08-26T03:16:54.514Z,43.67
2022-08-26T03:19:25.167Z,45.45
2022-08-26T03:21:57.940Z,55.28
2022-08-26T03:24:27.792Z,51.45
2022-08-26T03:26:58.610Z,53.33
2022-08-26T03:29:45.181Z,52.35
2022-08-26T03:32:18.999Z,47.85
2022-08-26T03:34:48.226Z,47.85
2022-08-26T03:37:17.300Z,60.72
2022-08-26T03:39:47.721Z,58.78
2022-08-26T03:42:21.497Z,69.20
2022-08-26T03:44:51.628Z,61.88
2022-08-26T03:47:20.930Z,68.28
2022-08-26T03:49:49.883Z,66.85
2022-08-26T03:52:21.274Z,57.97
2022-08-26T03:54:50.639Z,67.72
2022-08-26T03:57:21.077Z,69.38
2022-08-26T03:59:51.682Z,61.15
2022-08-26T04:02:21.006Z,60.67
2022-08-26T04:04:50.039Z,45.95
2022-08-26T04:07:19.361Z,55.63
2022-08-26T04:09:48.730Z,77.47
2022-08-26T04:12:17.897Z,49.75
2022-08-26T04:14:48.543Z,60.22
2022-08-26T04:17:17.654Z,51.97
2022-08-26T04:19:46.558Z,52.40
2022-08-26T04:22:16.021Z,66.05
2022-08-26T04:24:53.322Z,55.10
2022-08-26T04:27:22.579Z,48.58
2022-08-26T04:29:55.283Z,59.55
2022-08-26T04:32:24.795Z,58.13
2022-08-26T04:34:54.025Z,52.97
2022-08-26T04:37:23.091Z,66.80
2022-08-26T04:39:53.859Z,53.42
2022-08-26T04:42:26.075Z,49.47
2022-08-26T04:44:57.142Z,51.92
2022-08-26T04:47:31.706Z,53.20
2022-08-26T04:52:34.292Z,57.38
2022-08-26T04:55:04.083Z,56.97
2022-08-26T04:57:35.924Z,56.17
2022-08-26T05:00:10.379Z,60.05
2022-08-26T05:05:12.323Z,60.42
2022-08-26T05:07:42.121Z,44.85
2022-08-26T05:10:11.430Z,44.60
2022-08-26T05:12:40.772Z,45.53
2022-08-26T05:15:15.180Z,57.35
2022-08-26T05:17:45.707Z,42.95
2022-08-26T05:20:14.739Z,51.92
2022-08-26T05:22:44.424Z,45.88
2022-08-26T05:25:14.961Z,49.88
2022-08-26T05:27:44.599Z,55.53
2022-08-26T05:30:15.694Z,51.70
2022-08-26T05:32:45.087Z,46.17
2022-08-26T05:35:14.476Z,57.17
2022-08-26T05:37:45.195Z,49.45
2022-08-26T05:40:14.961Z,45.28
2022-08-26T05:42:47.592Z,44.55
2022-08-26T05:45:18.556Z,46.75
2022-08-26T05:47:48.724Z,43.28
2022-08-26T05:50:22.062Z,52.53
2022-08-26T05:52:52.983Z,47.35
2022-08-26T05:55:22.689Z,46.97
2022-08-26T05:57:52.002Z,43.55
2022-08-26T06:00:22.895Z,42.85
2022-08-26T06:02:53.117Z,37.35
2022-08-26T06:05:23.689Z,36.72
2022-08-26T06:08:10.289Z,32.40
2022-08-26T06:10:49.100Z,37.22
2022-08-26T06:13:21.586Z,35.75
2022-08-26T06:15:53.894Z,35.08
2022-08-26T06:18:27.406Z,28.95
2022-08-26T06:20:59.679Z,35.55
2022-08-26T06:23:48.780Z,33.45
2022-08-26T06:26:21.530Z,40.88
2022-08-26T06:28:54.115Z,29.50
2022-08-26T06:31:25.689Z,38.78
2022-08-26T06:33:55.608Z,37.70
2022-08-26T06:36:27.371Z,32.72
2022-08-26T06:39:00.883Z,37.88
2022-08-26T06:41:31.972Z,42.25
2022-08-26T06:44:01.827Z,31.10
2022-08-26T06:46:32.864Z,32.40
2022-08-26T06:49:02.485Z,33.65
2022-08-26T06:51:35.026Z,32.53
2022-08-26T06:54:05.769Z,39.22
2022-08-26T06:56:38.156Z,32.30
2022-08-26T06:59:08.321Z,26.13
2022-08-26T07:01:44.820Z,29.73
2022-08-26T07:04:21.986Z,35.25
2022-08-26T07:06:53.908Z,26.38
2022-08-26T07:09:25.605Z,29.98
2022-08-26T07:11:56.409Z,17.13
2022-08-26T07:14:26.395Z,23.55
2022-08-26T07:16:57.344Z,33.67
2022-08-26T07:19:29.825Z,32.25
2022-08-26T07:22:03.510Z,25.40
2022-08-26T07:24:35.227Z,26.30
2022-08-26T07:27:07.005Z,28.25
2022-08-26T07:29:40.498Z,24.33
2022-08-26T07:32:13.248Z,26.50
2022-08-26T07:34:43.430Z,26.30
2022-08-26T07:37:12.733Z,24.27
2022-08-26T07:39:43.216Z,40.08
2022-08-26T07:42:14.457Z,27.63
2022-08-26T07:44:44.556Z,22.70
2022-08-26T07:47:25.816Z,34.70
2022-08-26T07:49:57.645Z,27.00
2022-08-26T07:52:29.220Z,22.48
2022-08-26T07:55:00.264Z,36.47
2022-08-26T07:57:30.692Z,19.75
2022-08-26T08:00:00.584Z,31.15
2022-08-26T08:02:31.381Z,32.15
2022-08-26T08:05:00.834Z,23.92
2022-08-26T08:07:45.092Z,25.88
2022-08-26T08:10:17.301Z,25.98
2022-08-26T08:12:46.964Z,26.48
2022-08-26T08:15:18.802Z,20.52
2022-08-26T08:17:51.687Z,20.70
2022-08-26T08:20:22.134Z,25.45
2022-08-26T08:22:53.245Z,25.05
2022-08-26T08:25:23.928Z,27.75
2022-08-26T08:27:53.102Z,25.08
2022-08-26T08:30:24.495Z,19.38
2022-08-26T08:32:55.328Z,18.55
2022-08-26T08:35:26.464Z,30.33
2022-08-26T08:37:56.587Z,24.35
2022-08-26T08:40:27.815Z,31.35
2022-08-26T08:43:03.897Z,22.17
2022-08-26T08:48:14.806Z,18.33
2022-08-26T08:50:46.991Z,30.17
2022-08-26T08:53:22.715Z,27.48
2022-08-26T08:56:05.683Z,16.85
2022-08-26T08:58:50.983Z,21.90
2022-08-26T09:01:29.494Z,18.00
2022-08-26T09:04:21.011Z,20.42
2022-08-26T09:06:53.920Z,17.55
2022-08-26T09:09:30.482Z,27.23
2022-08-26T09:12:01.743Z,24.58
2022-08-26T09:14:32.457Z,26.73
2022-08-26T09:17:09.972Z,20.73
2022-08-26T09:19:48.072Z,21.73
2022-08-26T09:22:31.141Z,24.15
2022-08-26T09:25:01.613Z,24.48
2022-08-26T09:27:43.240Z,24.50
2022-08-26T09:30:15.627Z,27.58
2022-08-26T09:32:57.673Z,20.05
2022-08-26T09:35:32.507Z,20.33
2022-08-26T09:38:01.970Z,23.97
2022-08-26T09:40:34.672Z,24.05
2022-08-26T09:43:22.136Z,20.90
2022-08-26T09:45:59.112Z,14.35
2022-08-26T09:48:32.352Z,17.98
2022-08-26T09:51:26.356Z,19.88
2022-08-26T09:53:58.392Z,19.98
2022-08-26T09:56:32.104Z,19.05
2022-08-26T09:59:03.153Z,21.95
2022-08-26T10:01:38.174Z,19.58
2022-08-26T10:04:11.284Z,13.20
2022-08-26T10:06:44.798Z,14.25
2022-08-26T10:09:17.237Z,10.27
2022-08-26T10:11:53.805Z,19.60
2022-08-26T10:14:28.976Z,16.88
2022-08-26T10:17:06.933Z,11.57
2022-08-26T10:19:53.595Z,10.63
2022-08-26T10:22:34.519Z,17.05
2022-08-26T10:25:08.023Z,14.15
2022-08-26T10:27:53.274Z,17.63
2022-08-26T10:30:25.330Z,12.48
2022-08-26T10:32:59.271Z,11.65
2022-08-26T10:35:30.106Z,10.10
2022-08-26T10:38:06.106Z,12.45
2022-08-26T10:40:46.715Z,12.20
2022-08-26T10:43:23.810Z,14.40
2022-08-26T10:45:58.270Z,4.97
2022-08-26T10:48:36.128Z,12.82
2022-08-26T10:51:06.359Z,11.00
2022-08-26T10:53:51.602Z,11.60
2022-08-26T10:56:37.472Z,11.73
2022-08-26T10:59:20.279Z,11.35
2022-08-26T11:01:56.195Z,11.60
2022-08-26T11:04:48.193Z,7.93
2022-08-26T11:07:39.762Z,6.70
2022-08-26T11:10:33.514Z,9.35
2022-08-26T11:13:04.653Z,7.93
2022-08-26T11:16:02.540Z,8.15
2022-08-26T11:18:44.119Z,7.00
2022-08-26T11:21:52.840Z,10.00
2022-08-26T11:25:11.541Z,7.25
2022-08-26T11:27:59.846Z,12.95
2022-08-26T11:30:56.991Z,16.45
2022-08-26T11:33:59.627Z,6.50
2022-08-26T11:36:53.174Z,8.55
2022-08-26T11:39:28.685Z,7.35
2022-08-26T11:42:01.263Z,8.30
2022-08-26T11:44:41.027Z,16.17
2022-08-26T11:47:28.807Z,9.43
2022-08-26T11:50:13.337Z,10.82
2022-08-26T11:52:42.601Z,8.88
2022-08-26T11:55:19.625Z,8.15
2022-08-26T11:57:55.659Z,7.38
2022-08-26T12:00:33.782Z,5.55
2022-08-26T12:03:08.889Z,5.35
2022-08-26T12:05:44.519Z,10.32
2022-08-26T12:08:18.329Z,9.18
2022-08-26T12:10:48.461Z,6.85
2022-08-26T12:13:23.524Z,8.13
2022-08-26T12:15:59.980Z,11.63
2022-08-26T12:18:36.634Z,8.52
2022-08-26T12:21:16.179Z,9.55
2022-08-26T12:23:48.045Z,8.02
2022-08-26T12:26:26.014Z,6.38
2022-08-26T12:28:59.208Z,5.72
2022-08-26T12:31:32.775Z,10.38
2022-08-26T12:34:05.006Z,12.63
2022-08-26T12:36:39.225Z,9.43
2022-08-26T12:39:10.938Z,6.93
2022-08-26T12:41:43.670Z,7.00
2022-08-26T12:44:53.826Z,8.35
2022-08-26T12:47:42.150Z,9.00
2022-08-26T12:50:20.390Z,8.38
2022-08-26T12:52:58.991Z,7.55
2022-08-26T12:55:37.507Z,7.40
2022-08-26T12:58:22.659Z,6.95
2022-08-26T13:00:52.748Z,6.15
2022-08-26T13:03:47.751Z,8.73
2022-08-26T13:06:30.149Z,8.07
2022-08-26T13:09:01.441Z,7.43
2022-08-26T13:11:33.766Z,6.33
2022-08-26T13:14:06.879Z,3.85
2022-08-26T13:16:37.526Z,7.13
2022-08-26T13:19:11.132Z,8.00
2022-08-26T13:21:46.300Z,8.23
2022-08-26T13:24:19.169Z,6.80
2022-08-26T13:26:50.121Z,10.18
2022-08-26T13:29:21.507Z,7.53
2022-08-26T13:31:51.295Z,10.65
2022-08-26T13:34:24.074Z,9.63
2022-08-26T13:36:56.466Z,13.40
2022-08-26T13:39:26.988Z,10.32
2022-08-26T13:41:56.977Z,7.40
2022-08-26T13:44:26.033Z,8.27
2022-08-26T13:46:55.105Z,4.93
2022-08-26T13:49:26.002Z,7.30
2022-08-26T13:51:55.130Z,5.68
2022-08-26T13:54:24.401Z,6.55
2022-08-26T13:56:53.700Z,9.40
2022-08-26T13:59:22.826Z,8.43
2022-08-26T14:01:51.903Z,4.28
2022-08-26T14:04:22.466Z,10.45
2022-08-26T14:06:58.097Z,9.93
2022-08-26T14:09:27.578Z,6.47
2022-08-26T14:11:58.114Z,7.28
2022-08-26T14:14:28.422Z,5.35
2022-08-26T14:17:00.406Z,5.93
2022-08-26T14:19:31.222Z,9.18
2022-08-26T14:22:03.172Z,8.43
2022-08-26T14:24:33.005Z,7.97
2022-08-26T14:27:02.204Z,5.35
2022-08-26T14:29:31.604Z,7.28
2022-08-26T14:32:07.127Z,5.20
2022-08-26T14:34:36.544Z,6.03
2022-08-26T14:37:09.172Z,8.85
2022-08-26T14:39:40.209Z,5.75
2022-08-26T14:42:10.510Z,6.05
2022-08-26T14:44:45.826Z,7.82
2022-08-26T14:47:18.258Z,6.63
2022-08-26T14:49:47.508Z,4.25
2022-08-26T14:52:18.719Z,4.85
2022-08-26T14:54:47.024Z,9.82
2022-08-26T14:57:22.317Z,6.32
2022-08-26T14:59:51.622Z,8.90
2022-08-26T15:02:33.320Z,5.97
2022-08-26T15:05:04.489Z,9.02
2022-08-26T15:07:36.657Z,9.90
2022-08-26T15:10:07.903Z,9.27
2022-08-26T15:12:40.344Z,9.27
2022-08-26T15:15:11.565Z,7.43
2022-08-26T15:17:42.053Z,11.18
2022-08-26T15:20:12.451Z,34.92
2022-08-26T15:22:45.475Z,6.90
2022-08-26T15:25:15.294Z,5.03
2022-08-26T15:27:44.479Z,6.70
2022-08-26T15:30:16.696Z,10.85
2022-08-26T15:35:15.294Z,11.48
2022-08-26T15:37:45.934Z,8.10
2022-08-26T15:40:15.355Z,8.43
2022-08-26T15:42:44.431Z,6.55
2022-08-26T15:45:25.838Z,5.25
2022-08-26T15:48:01.182Z,8.88
2022-08-26T15:50:31.943Z,7.13
2022-08-26T15:53:02.915Z,7.57
2022-08-26T15:55:32.251Z,7.05
2022-08-26T15:58:01.451Z,8.73
2022-08-26T16:00:31.360Z,6.15
2022-08-26T16:03:00.753Z,8.40
2022-08-26T16:05:29.926Z,7.22
2022-08-26T16:07:59.264Z,10.57
2022-08-26T16:10:31.143Z,8.00
2022-08-26T16:13:00.569Z,8.02
2022-08-26T16:15:30.049Z,6.18
2022-08-26T16:18:02.088Z,7.43
2022-08-26T16:20:33.978Z,6.75
2022-08-26T16:23:04.348Z,7.32
2022-08-26T16:25:35.372Z,6.85
2022-08-26T16:28:09.848Z,11.07
2022-08-26T16:30:41.777Z,8.10
2022-08-26T16:33:11.980Z,10.77
2022-08-26T16:38:21.199Z,7.68
2022-08-26T16:40:54.133Z,10.35
2022-08-26T16:43:23.379Z,7.80
2022-08-26T16:45:52.349Z,12.00
2022-08-26T16:48:22.057Z,11.43
2022-08-26T16:50:51.398Z,11.10
2022-08-26T16:53:20.546Z,9.65
2022-08-26T16:55:50.965Z,10.93
2022-08-26T16:58:22.376Z,10.05
2022-08-26T17:00:51.967Z,11.40
2022-08-26T17:03:22.820Z,10.55
2022-08-26T17:05:52.058Z,10.55
2022-08-26T17:08:27.516Z,9.95
2022-08-26T17:11:00.439Z,5.85
2022-08-26T17:13:35.348Z,10.23
2022-08-26T17:16:07.478Z,8.82
2022-08-26T17:18:38.528Z,14.25
2022-08-26T17:21:10.429Z,90.20
2022-08-26T17:23:41.176Z,90.50
2022-08-26T17:26:11.960Z,37.97
2022-08-26T17:28:43.074Z,21.80
2022-08-26T17:31:14.379Z,74.13
2022-08-26T17:33:46.642Z,22.80
2022-08-26T17:36:17.319Z,47.65
2022-08-26T17:38:46.576Z,29.77
2022-08-26T17:41:19.504Z,35.53
2022-08-26T17:43:49.987Z,35.28
2022-08-26T17:46:19.238Z,26.85
2022-08-26T17:48:48.902Z,27.65
2022-08-26T17:51:20.390Z,23.90
2022-08-26T17:53:50.500Z,13.70
2022-08-26T17:56:23.974Z,13.95
2022-08-26T17:58:58.071Z,14.75
2022-08-26T18:01:33.050Z,23.05
2022-08-26T18:04:02.661Z,18.38
2022-08-26T18:06:32.377Z,14.55
2022-08-26T18:09:02.708Z,14.20
2022-08-26T18:11:32.963Z,15.77
2022-08-26T18:14:03.758Z,11.63
2022-08-26T18:16:38.226Z,25.55
2022-08-26T18:19:07.788Z,20.08
2022-08-26T18:21:37.335Z,14.38
2022-08-26T18:24:11.036Z,15.77
2022-08-26T18:26:48.309Z,15.02
2022-08-26T18:29:20.622Z,19.08
2022-08-26T18:31:50.151Z,21.00
2022-08-26T18:34:19.488Z,30.42
2022-08-26T18:36:49.226Z,20.58
2022-08-26T18:39:19.497Z,19.08
2022-08-26T18:41:53.855Z,25.67
2022-08-26T18:44:24.749Z,20.27
2022-08-26T18:46:54.537Z,20.08
2022-08-26T18:49:23.756Z,21.55
2022-08-26T18:51:53.357Z,22.58
2022-08-26T18:54:23.068Z,15.50
2022-08-26T18:56:52.450Z,15.85
2022-08-26T18:59:29.587Z,20.70
2022-08-26T19:02:00.161Z,23.27
2022-08-26T19:04:29.665Z,24.13
2022-08-26T19:06:58.613Z,23.33
2022-08-26T19:09:28.237Z,17.95
2022-08-26T19:11:58.146Z,23.25
2022-08-26T19:14:28.909Z,17.00
2022-08-26T19:17:01.482Z,15.35
2022-08-26T19:19:31.895Z,27.63
2022-08-26T19:24:37.051Z,21.50
2022-08-26T19:27:06.559Z,21.92
2022-08-26T19:29:38.220Z,19.08
2022-08-26T19:32:08.580Z,21.65
2022-08-26T19:34:38.651Z,18.90
2022-08-26T19:37:07.799Z,19.65
2022-08-26T19:39:37.740Z,26.38
2022-08-26T19:42:07.281Z,21.25
2022-08-26T19:44:55.421Z,19.90
2022-08-26T19:47:24.652Z,17.98
2022-08-26T19:49:55.449Z,20.17
2022-08-26T19:52:29.919Z,17.98
2022-08-26T19:55:02.525Z,19.90
2022-08-26T19:57:34.315Z,16.20
2022-08-26T20:00:12.309Z,15.57
2022-08-26T20:02:41.961Z,17.38
2022-08-26T20:05:14.018Z,15.85
2022-08-26T20:07:47.993Z,14.45
2022-08-26T20:10:20.933Z,18.67
2022-08-26T20:12:52.934Z,21.42
2022-08-26T20:15:24.232Z,14.95
2022-08-26T20:17:55.791Z,19.02
2022-08-26T20:20:42.267Z,16.75
2022-08-26T20:23:11.556Z,18.60
2022-08-26T20:25:44.134Z,18.08
2022-08-26T20:28:14.125Z,18.10
2022-08-26T20:30:44.926Z,21.33
2022-08-26T20:33:14.247Z,13.68
2022-08-26T20:35:43.358Z,16.73
2022-08-26T20:38:12.612Z,16.02
2022-08-26T20:40:42.240Z,19.60
2022-08-26T20:43:12.547Z,17.23
2022-08-26T20:45:43.653Z,20.98
2022-08-26T20:48:12.907Z,19.67
2022-08-26T20:50:42.239Z,19.20
2022-08-26T20:53:11.195Z,18.27
2022-08-26T20:55:40.903Z,19.23
2022-08-26T20:58:10.592Z,19.45
2022-08-26T21:00:40.036Z,16.27
2022-08-26T21:03:10.645Z,21.80
2022-08-26T21:05:39.998Z,24.60
2022-08-26T21:08:09.549Z,25.15
2022-08-26T21:10:41.157Z,20.55
2022-08-26T21:13:10.354Z,18.58
2022-08-26T21:15:39.729Z,21.20
2022-08-26T21:18:10.550Z,18.63
2022-08-26T21:20:40.257Z,22.95
2022-08-26T21:23:09.456Z,20.27
2022-08-26T21:25:38.858Z,16.65
2022-08-26T21:28:08.108Z,17.83
2022-08-26T21:30:39.564Z,16.27
2022-08-26T21:33:10.203Z,22.88
2022-08-26T21:35:39.569Z,17.10
2022-08-26T21:38:08.863Z,19.38
2022-08-26T21:40:38.103Z,18.05
2022-08-26T21:43:07.383Z,18.02
2022-08-26T21:45:41.877Z,24.55
2022-08-26T21:48:12.483Z,24.90
2022-08-26T21:50:41.639Z,18.70
2022-08-26T21:53:10.776Z,17.83
2022-08-26T21:55:42.596Z,26.23
2022-08-26T21:58:11.982Z,17.50
2022-08-26T22:00:47.951Z,21.75
2022-08-26T22:03:19.473Z,18.90
2022-08-26T22:05:51.514Z,21.42
2022-08-26T22:08:22.750Z,24.50
2022-08-26T22:10:58.360Z,23.40
2022-08-26T22:13:31.864Z,28.00
2022-08-26T22:16:02.004Z,19.90
2022-08-26T22:18:33.381Z,20.95
2022-08-26T22:21:05.812Z,22.45
2022-08-26T22:23:36.256Z,21.15
2022-08-26T22:26:06.820Z,20.40
2022-08-26T22:28:36.680Z,17.40
2022-08-26T22:31:07.267Z,20.88
2022-08-26T22:33:38.394Z,22.45
2022-08-26T22:36:07.903Z,19.05
2022-08-26T22:38:37.261Z,22.90
2022-08-26T22:41:09.945Z,18.77
2022-08-26T22:43:39.478Z,20.02
2022-08-26T22:46:09.732Z,20.33
2022-08-26T22:48:40.355Z,16.80
2022-08-26T22:51:09.650Z,17.13
2022-08-26T22:53:41.544Z,18.05
2022-08-26T22:56:12.301Z,15.60
2022-08-26T22:58:41.781Z,22.15
2022-08-26T23:01:10.829Z,15.25
2022-08-26T23:03:41.869Z,18.02
2022-08-26T23:06:12.030Z,18.50
2022-08-26T23:08:45.291Z,29.38
2022-08-26T23:11:16.138Z,22.85
2022-08-26T23:13:45.490Z,17.52
2022-08-26T23:16:15.191Z,15.77
2022-08-26T23:18:45.748Z,22.83
2022-08-26T23:21:15.385Z,19.30
2022-08-26T23:23:45.198Z,16.85
2022-08-26T23:26:17.553Z,16.42
2022-08-26T23:28:47.183Z,20.35
2022-08-26T23:31:16.481Z,18.92
2022-08-26T23:34:04.403Z,18.60
2022-08-26T23:36:34.378Z,15.63
2022-08-26T23:39:05.400Z,15.25
2022-08-26T23:41:35.952Z,18.17
2022-08-26T23:44:06.240Z,17.27
2022-08-26T23:46:36.840Z,17.73
2022-08-26T23:49:07.649Z,21.88
2022-08-26T23:51:54.428Z,15.23
2022-08-26T23:54:24.157Z,17.00
2022-08-26T23:56:53.525Z,17.92
2022-08-26T23:59:22.738Z,14.85
